sensor_id;sensor_type;location;lat;lon;timestamp;P1;durP1;ratioP1;P2;durP2;ratioP2
59207;SDS011;44977;53.132;6.408;2023-01-31T00:04:34;17.75;;;4.75;;
59207;SDS011;44977;53.132;6.408;2023-01-31T00:09:35;22.80;;;4.93;;
59207;SDS011;44977;53.132;6.408;2023-01-31T00:14:35;23.38;;;5.20;;
59207;SDS011;44977;53.132;6.408;2023-01-31T00:19:36;19.88;;;4.82;;
59207;SDS011;44977;53.132;6.408;2023-01-31T00:24:37;20.48;;;4.78;;
59207;SDS011;44977;53.132;6.408;2023-01-31T00:29:37;22.70;;;4.53;;
59207;SDS011;44977;53.132;6.408;2023-01-31T00:34:38;21.42;;;4.88;;
59207;SDS011;44977;53.132;6.408;2023-01-31T00:39:39;24.13;;;5.22;;
59207;SDS011;44977;53.132;6.408;2023-01-31T00:44:39;21.95;;;4.95;;
59207;SDS011;44977;53.132;6.408;2023-01-31T00:49:40;25.20;;;5.32;;
59207;SDS011;44977;53.132;6.408;2023-01-31T00:54:41;23.17;;;4.13;;
59207;SDS011;44977;53.132;6.408;2023-01-31T00:59:42;19.08;;;4.78;;
59207;SDS011;44977;53.132;6.408;2023-01-31T01:04:42;21.02;;;4.65;;
59207;SDS011;44977;53.132;6.408;2023-01-31T01:09:43;18.48;;;4.25;;
59207;SDS011;44977;53.132;6.408;2023-01-31T01:14:43;17.42;;;3.90;;
59207;SDS011;44977;53.132;6.408;2023-01-31T01:19:44;21.67;;;4.15;;
59207;SDS011;44977;53.132;6.408;2023-01-31T01:24:45;16.95;;;3.85;;
59207;SDS011;44977;53.132;6.408;2023-01-31T01:29:45;20.05;;;4.30;;
59207;SDS011;44977;53.132;6.408;2023-01-31T01:34:46;18.20;;;4.13;;
59207;SDS011;44977;53.132;6.408;2023-01-31T01:39:47;20.42;;;4.50;;
59207;SDS011;44977;53.132;6.408;2023-01-31T01:44:53;15.85;;;3.67;;
59207;SDS011;44977;53.132;6.408;2023-01-31T01:49:57;20.33;;;4.07;;
59207;SDS011;44977;53.132;6.408;2023-01-31T01:55:27;18.88;;;4.18;;
59207;SDS011;44977;53.132;6.408;2023-01-31T02:00:34;19.60;;;3.88;;
59207;SDS011;44977;53.132;6.408;2023-01-31T02:05:41;21.45;;;4.07;;
59207;SDS011;44977;53.132;6.408;2023-01-31T02:10:48;17.35;;;3.65;;
59207;SDS011;44977;53.132;6.408;2023-01-31T02:15:54;18.45;;;4.60;;
59207;SDS011;44977;53.132;6.408;2023-01-31T02:47:26;18.52;;;3.90;;
59207;SDS011;44977;53.132;6.408;2023-01-31T02:52:31;19.23;;;3.60;;
59207;SDS011;44977;53.132;6.408;2023-01-31T02:57:39;20.13;;;4.70;;
59207;SDS011;44977;53.132;6.408;2023-01-31T03:02:43;19.05;;;4.22;;
59207;SDS011;44977;53.132;6.408;2023-01-31T03:07:46;23.70;;;4.65;;
59207;SDS011;44977;53.132;6.408;2023-01-31T03:18:10;15.93;;;3.78;;
59207;SDS011;44977;53.132;6.408;2023-01-31T03:23:16;17.15;;;4.05;;
59207;SDS011;44977;53.132;6.408;2023-01-31T03:28:27;19.58;;;4.03;;
59207;SDS011;44977;53.132;6.408;2023-01-31T03:33:37;15.63;;;3.22;;
59207;SDS011;44977;53.132;6.408;2023-01-31T03:38:46;15.85;;;3.47;;
59207;SDS011;44977;53.132;6.408;2023-01-31T03:44:02;17.63;;;3.85;;
59207;SDS011;44977;53.132;6.408;2023-01-31T03:49:10;19.33;;;4.43;;
59207;SDS011;44977;53.132;6.408;2023-01-31T03:54:16;14.88;;;3.63;;
59207;SDS011;44977;53.132;6.408;2023-01-31T03:59:22;16.67;;;3.75;;
59207;SDS011;44977;53.132;6.408;2023-01-31T04:04:27;14.55;;;4.03;;
59207;SDS011;44977;53.132;6.408;2023-01-31T04:09:34;19.88;;;3.90;;
59207;SDS011;44977;53.132;6.408;2023-01-31T04:14:36;20.65;;;4.47;;
59207;SDS011;44977;53.132;6.408;2023-01-31T04:19:37;23.15;;;4.72;;
59207;SDS011;44977;53.132;6.408;2023-01-31T04:24:37;20.17;;;4.28;;
59207;SDS011;44977;53.132;6.408;2023-01-31T04:29:38;17.83;;;4.18;;
59207;SDS011;44977;53.132;6.408;2023-01-31T04:34:40;20.55;;;4.93;;
59207;SDS011;44977;53.132;6.408;2023-01-31T04:39:40;20.88;;;5.22;;
59207;SDS011;44977;53.132;6.408;2023-01-31T04:44:41;22.67;;;5.18;;
59207;SDS011;44977;53.132;6.408;2023-01-31T04:49:42;26.33;;;6.15;;
59207;SDS011;44977;53.132;6.408;2023-01-31T04:54:43;24.35;;;6.35;;
59207;SDS011;44977;53.132;6.408;2023-01-31T04:59:43;23.77;;;6.30;;
59207;SDS011;44977;53.132;6.408;2023-01-31T05:04:44;25.48;;;6.80;;
59207;SDS011;44977;53.132;6.408;2023-01-31T05:09:45;23.33;;;6.43;;
59207;SDS011;44977;53.132;6.408;2023-01-31T05:14:46;22.58;;;5.82;;
59207;SDS011;44977;53.132;6.408;2023-01-31T05:19:46;22.95;;;6.10;;
59207;SDS011;44977;53.132;6.408;2023-01-31T05:24:48;23.30;;;5.38;;
59207;SDS011;44977;53.132;6.408;2023-01-31T05:29:49;22.05;;;5.78;;
59207;SDS011;44977;53.132;6.408;2023-01-31T05:34:50;26.52;;;6.25;;
59207;SDS011;44977;53.132;6.408;2023-01-31T05:39:51;25.70;;;6.57;;
59207;SDS011;44977;53.132;6.408;2023-01-31T05:44:52;26.00;;;6.65;;
59207;SDS011;44977;53.132;6.408;2023-01-31T05:49:52;24.60;;;6.15;;
59207;SDS011;44977;53.132;6.408;2023-01-31T05:54:53;29.13;;;6.95;;
59207;SDS011;44977;53.132;6.408;2023-01-31T05:59:54;26.00;;;6.55;;
59207;SDS011;44977;53.132;6.408;2023-01-31T06:04:54;26.50;;;7.53;;
59207;SDS011;44977;53.132;6.408;2023-01-31T06:09:55;25.95;;;6.35;;
59207;SDS011;44977;53.132;6.408;2023-01-31T06:14:56;23.33;;;6.97;;
59207;SDS011;44977;53.132;6.408;2023-01-31T06:19:56;25.98;;;6.30;;
59207;SDS011;44977;53.132;6.408;2023-01-31T06:24:57;25.55;;;6.63;;
59207;SDS011;44977;53.132;6.408;2023-01-31T06:29:59;23.17;;;6.00;;
59207;SDS011;44977;53.132;6.408;2023-01-31T06:35:00;22.75;;;5.82;;
59207;SDS011;44977;53.132;6.408;2023-01-31T06:40:02;23.60;;;5.95;;
59207;SDS011;44977;53.132;6.408;2023-01-31T06:45:03;21.75;;;5.97;;
59207;SDS011;44977;53.132;6.408;2023-01-31T06:50:04;24.08;;;6.30;;
59207;SDS011;44977;53.132;6.408;2023-01-31T06:55:05;21.02;;;5.75;;
59207;SDS011;44977;53.132;6.408;2023-01-31T07:00:06;23.58;;;5.85;;
59207;SDS011;44977;53.132;6.408;2023-01-31T07:05:08;22.65;;;6.38;;
59207;SDS011;44977;53.132;6.408;2023-01-31T07:10:09;25.00;;;6.28;;
59207;SDS011;44977;53.132;6.408;2023-01-31T07:15:10;23.45;;;5.35;;
59207;SDS011;44977;53.132;6.408;2023-01-31T07:20:11;17.75;;;4.95;;
59207;SDS011;44977;53.132;6.408;2023-01-31T07:25:12;21.05;;;5.25;;
59207;SDS011;44977;53.132;6.408;2023-01-31T07:30:12;18.40;;;5.07;;
59207;SDS011;44977;53.132;6.408;2023-01-31T07:35:13;21.55;;;5.10;;
59207;SDS011;44977;53.132;6.408;2023-01-31T07:40:14;21.50;;;5.25;;
59207;SDS011;44977;53.132;6.408;2023-01-31T07:45:15;21.35;;;5.32;;
59207;SDS011;44977;53.132;6.408;2023-01-31T07:50:16;24.20;;;5.20;;
59207;SDS011;44977;53.132;6.408;2023-01-31T07:55:17;21.05;;;4.15;;
59207;SDS011;44977;53.132;6.408;2023-01-31T08:00:17;20.20;;;4.28;;
59207;SDS011;44977;53.132;6.408;2023-01-31T08:05:37;21.15;;;4.53;;
59207;SDS011;44977;53.132;6.408;2023-01-31T08:10:38;19.13;;;4.85;;
59207;SDS011;44977;53.132;6.408;2023-01-31T08:15:39;17.42;;;4.03;;
59207;SDS011;44977;53.132;6.408;2023-01-31T08:20:40;20.42;;;4.25;;
59207;SDS011;44977;53.132;6.408;2023-01-31T08:25:40;17.60;;;4.32;;
59207;SDS011;44977;53.132;6.408;2023-01-31T08:30:42;17.05;;;4.30;;
59207;SDS011;44977;53.132;6.408;2023-01-31T08:35:44;14.10;;;4.18;;
59207;SDS011;44977;53.132;6.408;2023-01-31T08:40:44;16.00;;;4.30;;
59207;SDS011;44977;53.132;6.408;2023-01-31T08:45:45;16.55;;;4.32;;
59207;SDS011;44977;53.132;6.408;2023-01-31T08:50:46;17.90;;;4.50;;
59207;SDS011;44977;53.132;6.408;2023-01-31T08:55:46;14.93;;;4.13;;
59207;SDS011;44977;53.132;6.408;2023-01-31T09:00:47;17.90;;;4.13;;
59207;SDS011;44977;53.132;6.408;2023-01-31T09:05:47;18.98;;;4.95;;
59207;SDS011;44977;53.132;6.408;2023-01-31T09:10:51;15.43;;;3.85;;
59207;SDS011;44977;53.132;6.408;2023-01-31T09:16:03;19.40;;;4.65;;
59207;SDS011;44977;53.132;6.408;2023-01-31T09:21:10;18.75;;;4.40;;
59207;SDS011;44977;53.132;6.408;2023-01-31T09:26:15;20.50;;;4.28;;
59207;SDS011;44977;53.132;6.408;2023-01-31T09:31:16;17.80;;;4.28;;
59207;SDS011;44977;53.132;6.408;2023-01-31T09:36:20;18.05;;;4.45;;
59207;SDS011;44977;53.132;6.408;2023-01-31T09:46:29;21.13;;;4.45;;
59207;SDS011;44977;53.132;6.408;2023-01-31T09:51:34;18.27;;;5.03;;
59207;SDS011;44977;53.132;6.408;2023-01-31T09:56:44;22.77;;;5.15;;
59207;SDS011;44977;53.132;6.408;2023-01-31T10:01:58;21.60;;;4.82;;
59207;SDS011;44977;53.132;6.408;2023-01-31T10:07:23;24.73;;;5.13;;
59207;SDS011;44977;53.132;6.408;2023-01-31T10:17:40;23.83;;;5.43;;
59207;SDS011;44977;53.132;6.408;2023-01-31T10:22:55;21.75;;;5.68;;
59207;SDS011;44977;53.132;6.408;2023-01-31T10:44:17;19.92;;;5.38;;
59207;SDS011;44977;53.132;6.408;2023-01-31T10:49:23;24.55;;;5.78;;
59207;SDS011;44977;53.132;6.408;2023-01-31T10:59:48;20.00;;;5.55;;
59207;SDS011;44977;53.132;6.408;2023-01-31T11:04:50;21.70;;;5.28;;
59207;SDS011;44977;53.132;6.408;2023-01-31T11:09:52;22.08;;;4.97;;
59207;SDS011;44977;53.132;6.408;2023-01-31T11:15:03;22.02;;;5.47;;
59207;SDS011;44977;53.132;6.408;2023-01-31T11:25:24;18.42;;;4.65;;
59207;SDS011;44977;53.132;6.408;2023-01-31T11:30:29;19.60;;;4.90;;
59207;SDS011;44977;53.132;6.408;2023-01-31T11:35:33;17.02;;;4.90;;
59207;SDS011;44977;53.132;6.408;2023-01-31T11:40:35;21.65;;;5.25;;
59207;SDS011;44977;53.132;6.408;2023-01-31T11:45:37;21.77;;;5.03;;
59207;SDS011;44977;53.132;6.408;2023-01-31T11:50:43;23.48;;;5.70;;
59207;SDS011;44977;53.132;6.408;2023-01-31T11:55:47;21.27;;;4.75;;
59207;SDS011;44977;53.132;6.408;2023-01-31T12:00:53;19.38;;;5.50;;
59207;SDS011;44977;53.132;6.408;2023-01-31T12:05:59;22.67;;;6.43;;
59207;SDS011;44977;53.132;6.408;2023-01-31T12:11:05;21.73;;;4.53;;
59207;SDS011;44977;53.132;6.408;2023-01-31T12:16:06;21.45;;;5.60;;
59207;SDS011;44977;53.132;6.408;2023-01-31T12:27:01;18.67;;;4.55;;
59207;SDS011;44977;53.132;6.408;2023-01-31T12:42:46;16.85;;;4.35;;
59207;SDS011;44977;53.132;6.408;2023-01-31T12:58:29;19.55;;;4.80;;
59207;SDS011;44977;53.132;6.408;2023-01-31T13:09:02;15.68;;;4.63;;
59207;SDS011;44977;53.132;6.408;2023-01-31T13:14:16;18.15;;;4.68;;
59207;SDS011;44977;53.132;6.408;2023-01-31T13:19:38;19.77;;;4.68;;
59207;SDS011;44977;53.132;6.408;2023-01-31T13:30:40;16.20;;;4.68;;
59207;SDS011;44977;53.132;6.408;2023-01-31T13:41:30;18.80;;;4.32;;
59207;SDS011;44977;53.132;6.408;2023-01-31T13:46:36;17.63;;;4.40;;
59207;SDS011;44977;53.132;6.408;2023-01-31T13:51:54;15.38;;;3.70;;
59207;SDS011;44977;53.132;6.408;2023-01-31T13:56:58;18.58;;;4.20;;
59207;SDS011;44977;53.132;6.408;2023-01-31T14:02:00;15.57;;;4.53;;
59207;SDS011;44977;53.132;6.408;2023-01-31T14:22:26;16.52;;;4.40;;
59207;SDS011;44977;53.132;6.408;2023-01-31T14:27:38;15.68;;;4.43;;
59207;SDS011;44977;53.132;6.408;2023-01-31T14:32:56;17.73;;;4.22;;
59207;SDS011;44977;53.132;6.408;2023-01-31T15:04:29;22.83;;;5.50;;
59207;SDS011;44977;53.132;6.408;2023-01-31T15:09:36;19.50;;;4.88;;
59207;SDS011;44977;53.132;6.408;2023-01-31T15:14:39;23.13;;;4.80;;
59207;SDS011;44977;53.132;6.408;2023-01-31T15:19:48;20.65;;;5.25;;
59207;SDS011;44977;53.132;6.408;2023-01-31T15:24:58;22.55;;;5.82;;
59207;SDS011;44977;53.132;6.408;2023-01-31T15:30:12;20.08;;;4.80;;
59207;SDS011;44977;53.132;6.408;2023-01-31T15:35:20;24.55;;;5.15;;
59207;SDS011;44977;53.132;6.408;2023-01-31T15:40:27;20.63;;;5.30;;
59207;SDS011;44977;53.132;6.408;2023-01-31T15:45:29;21.33;;;5.75;;
59207;SDS011;44977;53.132;6.408;2023-01-31T15:50:30;21.83;;;6.30;;
59207;SDS011;44977;53.132;6.408;2023-01-31T15:55:35;23.20;;;6.38;;
59207;SDS011;44977;53.132;6.408;2023-01-31T16:00:36;25.20;;;5.82;;
59207;SDS011;44977;53.132;6.408;2023-01-31T16:05:37;23.95;;;6.15;;
59207;SDS011;44977;53.132;6.408;2023-01-31T16:10:39;20.80;;;5.50;;
59207;SDS011;44977;53.132;6.408;2023-01-31T16:15:40;25.25;;;5.45;;
59207;SDS011;44977;53.132;6.408;2023-01-31T16:20:46;20.48;;;5.43;;
59207;SDS011;44977;53.132;6.408;2023-01-31T16:25:51;24.93;;;5.77;;
59207;SDS011;44977;53.132;6.408;2023-01-31T16:31:08;22.35;;;5.43;;
59207;SDS011;44977;53.132;6.408;2023-01-31T16:36:12;24.27;;;5.67;;
59207;SDS011;44977;53.132;6.408;2023-01-31T16:41:29;29.40;;;6.05;;
59207;SDS011;44977;53.132;6.408;2023-01-31T16:46:40;22.17;;;5.90;;
59207;SDS011;44977;53.132;6.408;2023-01-31T16:51:44;28.30;;;6.80;;
59207;SDS011;44977;53.132;6.408;2023-01-31T16:56:46;27.27;;;5.95;;
59207;SDS011;44977;53.132;6.408;2023-01-31T17:07:34;27.85;;;6.70;;
59207;SDS011;44977;53.132;6.408;2023-01-31T17:12:36;25.75;;;6.47;;
59207;SDS011;44977;53.132;6.408;2023-01-31T17:17:39;25.52;;;5.65;;
59207;SDS011;44977;53.132;6.408;2023-01-31T17:22:40;21.65;;;5.50;;
59207;SDS011;44977;53.132;6.408;2023-01-31T17:27:41;21.70;;;5.43;;
59207;SDS011;44977;53.132;6.408;2023-01-31T17:32:41;25.05;;;5.75;;
59207;SDS011;44977;53.132;6.408;2023-01-31T17:37:43;24.70;;;5.25;;
59207;SDS011;44977;53.132;6.408;2023-01-31T17:42:44;22.58;;;5.63;;
59207;SDS011;44977;53.132;6.408;2023-01-31T17:47:44;26.23;;;6.03;;
59207;SDS011;44977;53.132;6.408;2023-01-31T17:52:46;19.73;;;5.70;;
59207;SDS011;44977;53.132;6.408;2023-01-31T17:57:47;23.40;;;5.80;;
59207;SDS011;44977;53.132;6.408;2023-01-31T18:02:47;26.17;;;6.22;;
59207;SDS011;44977;53.132;6.408;2023-01-31T18:07:48;26.35;;;7.10;;
59207;SDS011;44977;53.132;6.408;2023-01-31T18:12:49;27.30;;;6.00;;
59207;SDS011;44977;53.132;6.408;2023-01-31T18:17:50;23.75;;;6.22;;
59207;SDS011;44977;53.132;6.408;2023-01-31T18:22:51;22.05;;;5.97;;
59207;SDS011;44977;53.132;6.408;2023-01-31T18:27:51;24.42;;;5.63;;
59207;SDS011;44977;53.132;6.408;2023-01-31T18:32:52;23.00;;;5.82;;
59207;SDS011;44977;53.132;6.408;2023-01-31T18:37:53;18.63;;;4.88;;
59207;SDS011;44977;53.132;6.408;2023-01-31T18:42:54;22.25;;;5.45;;
59207;SDS011;44977;53.132;6.408;2023-01-31T18:47:55;24.85;;;6.57;;
59207;SDS011;44977;53.132;6.408;2023-01-31T18:52:55;23.55;;;5.45;;
59207;SDS011;44977;53.132;6.408;2023-01-31T18:57:56;22.92;;;5.47;;
59207;SDS011;44977;53.132;6.408;2023-01-31T19:02:57;22.55;;;5.32;;
59207;SDS011;44977;53.132;6.408;2023-01-31T19:07:57;23.33;;;5.72;;
59207;SDS011;44977;53.132;6.408;2023-01-31T19:12:58;22.35;;;5.65;;
59207;SDS011;44977;53.132;6.408;2023-01-31T19:17:59;23.13;;;5.63;;
59207;SDS011;44977;53.132;6.408;2023-01-31T19:22:59;25.15;;;6.15;;
59207;SDS011;44977;53.132;6.408;2023-01-31T19:28:00;21.05;;;6.07;;
59207;SDS011;44977;53.132;6.408;2023-01-31T19:33:01;26.27;;;6.28;;
59207;SDS011;44977;53.132;6.408;2023-01-31T19:38:01;25.58;;;5.93;;
59207;SDS011;44977;53.132;6.408;2023-01-31T19:43:02;23.45;;;6.35;;
59207;SDS011;44977;53.132;6.408;2023-01-31T19:48:03;24.85;;;6.93;;
59207;SDS011;44977;53.132;6.408;2023-01-31T19:53:04;22.15;;;6.00;;
59207;SDS011;44977;53.132;6.408;2023-01-31T19:58:04;26.08;;;6.47;;
59207;SDS011;44977;53.132;6.408;2023-01-31T20:03:05;21.83;;;5.68;;
59207;SDS011;44977;53.132;6.408;2023-01-31T20:08:06;24.65;;;5.68;;
59207;SDS011;44977;53.132;6.408;2023-01-31T20:13:07;26.27;;;5.82;;
59207;SDS011;44977;53.132;6.408;2023-01-31T20:18:07;21.48;;;6.47;;
59207;SDS011;44977;53.132;6.408;2023-01-31T20:23:08;24.20;;;6.65;;
59207;SDS011;44977;53.132;6.408;2023-01-31T20:28:13;21.70;;;5.53;;
59207;SDS011;44977;53.132;6.408;2023-01-31T20:33:14;24.08;;;6.30;;
59207;SDS011;44977;53.132;6.408;2023-01-31T20:38:15;23.73;;;6.20;;
59207;SDS011;44977;53.132;6.408;2023-01-31T20:43:17;24.67;;;6.40;;
59207;SDS011;44977;53.132;6.408;2023-01-31T20:48:19;29.25;;;7.00;;
59207;SDS011;44977;53.132;6.408;2023-01-31T20:53:20;22.45;;;6.10;;
59207;SDS011;44977;53.132;6.408;2023-01-31T20:58:21;27.65;;;6.32;;
59207;SDS011;44977;53.132;6.408;2023-01-31T21:03:23;27.58;;;6.78;;
59207;SDS011;44977;53.132;6.408;2023-01-31T21:08:23;24.63;;;6.30;;
59207;SDS011;44977;53.132;6.408;2023-01-31T21:13:25;28.05;;;6.50;;
59207;SDS011;44977;53.132;6.408;2023-01-31T21:18:31;23.58;;;5.90;;
59207;SDS011;44977;53.132;6.408;2023-01-31T21:23:37;26.98;;;6.22;;
59207;SDS011;44977;53.132;6.408;2023-01-31T21:28:39;26.75;;;6.63;;
59207;SDS011;44977;53.132;6.408;2023-01-31T21:33:39;25.83;;;6.35;;
59207;SDS011;44977;53.132;6.408;2023-01-31T21:38:40;25.58;;;6.32;;
59207;SDS011;44977;53.132;6.408;2023-01-31T21:43:41;26.25;;;5.95;;
59207;SDS011;44977;53.132;6.408;2023-01-31T21:48:42;28.10;;;6.50;;
59207;SDS011;44977;53.132;6.408;2023-01-31T21:53:43;25.15;;;7.15;;
59207;SDS011;44977;53.132;6.408;2023-01-31T21:58:44;27.58;;;6.40;;
59207;SDS011;44977;53.132;6.408;2023-01-31T22:03:46;27.90;;;6.70;;
59207;SDS011;44977;53.132;6.408;2023-01-31T22:08:52;25.58;;;6.45;;
59207;SDS011;44977;53.132;6.408;2023-01-31T22:13:54;25.55;;;6.10;;
59207;SDS011;44977;53.132;6.408;2023-01-31T22:18:56;24.60;;;6.03;;
59207;SDS011;44977;53.132;6.408;2023-01-31T22:24:00;30.25;;;6.47;;
59207;SDS011;44977;53.132;6.408;2023-01-31T22:29:03;23.48;;;6.20;;
59207;SDS011;44977;53.132;6.408;2023-01-31T22:34:06;24.85;;;5.88;;
59207;SDS011;44977;53.132;6.408;2023-01-31T22:39:10;22.17;;;5.85;;
59207;SDS011;44977;53.132;6.408;2023-01-31T22:44:12;27.98;;;6.70;;
59207;SDS011;44977;53.132;6.408;2023-01-31T22:49:13;30.27;;;6.95;;
59207;SDS011;44977;53.132;6.408;2023-01-31T22:54:13;24.08;;;6.05;;
59207;SDS011;44977;53.132;6.408;2023-01-31T22:59:17;29.33;;;6.45;;
59207;SDS011;44977;53.132;6.408;2023-01-31T23:04:17;23.13;;;6.35;;
59207;SDS011;44977;53.132;6.408;2023-01-31T23:09:18;22.40;;;5.82;;
59207;SDS011;44977;53.132;6.408;2023-01-31T23:14:19;22.50;;;6.03;;
59207;SDS011;44977;53.132;6.408;2023-01-31T23:19:19;25.08;;;5.85;;
59207;SDS011;44977;53.132;6.408;2023-01-31T23:24:20;26.42;;;6.10;;
59207;SDS011;44977;53.132;6.408;2023-01-31T23:29:21;25.67;;;6.13;;
59207;SDS011;44977;53.132;6.408;2023-01-31T23:34:21;23.98;;;5.97;;
59207;SDS011;44977;53.132;6.408;2023-01-31T23:39:22;27.52;;;7.00;;
59207;SDS011;44977;53.132;6.408;2023-01-31T23:44:23;24.98;;;6.07;;
59207;SDS011;44977;53.132;6.408;2023-01-31T23:49:23;27.08;;;6.35;;
59207;SDS011;44977;53.132;6.408;2023-01-31T23:54:24;27.73;;;6.32;;
59207;SDS011;44977;53.132;6.408;2023-01-31T23:59:25;32.03;;;6.53;;
